Merida, Mexico

11:03 PM CST on December 03, 2016 (GMT -0600)
Vencedora | | Change Station

Elev 36 ft 20.98 °N, 89.62 °W | Updated 15 minutes ago

Clear
Clear
82.4 °F
Feels Like 88 °F
N
1.2
Wind Variable Wind from ENE

Today
High -- | Low -- °F
--% Chance of Precip.
Yesterday
High -- | Low -- °F
Precip. -- in
Pressure 29.89 in
Visibility 7.0 miles
Clouds Clear
Heat Index 88 °F
Dew Point 70 °F
Humidity 72%
Rainfall Not available.
Snow Depth Not available.
6:20 AM 5:16 PM
Waxing Crescent, 19% visible
METAR MMMD 040448Z 10009KT 7SM SKC 26/21 A2989
Pressure 29.89 in
Visibility 7.0 miles
Clouds Clear
Heat Index 88 °F
Dew Point 70 °F
Humidity 72%
Rainfall Not available.
Snow Depth Not available.
6:20 AM 5:16 PM
Waxing Crescent, 19% visible
METAR MMMD 040448Z 10009KT 7SM SKC 26/21 A2989

10-Day Weather Forecast

No radar image for this location.
×

Almanac

Astronomy

Dec. 03, 2016 Rise Set
Actual Time
Civil Twilight
Nautical Twilight
Astronomical Twilight
Moon
Length of Visible Light
Length of Day
Tomorrow will be .
, % of the Moon is Illuminated

Today's Extremes

Country Highs Country Lows

Community

WunderPhotos

Upload Photos

1,955,584 photos uploaded!

WunderBlog® & News

Nearby

Air Quality

  Air Quality AQ Index Pollutant
Not available.

Snow Depth

Station Depth Elevation

Earthquake Activity

City Distance Mag. Time & Date
Minimum magnitude displayed is 2.5.

Coastal Water Temperatures

Place Temperature

Stations

Nearby Weather Stations

Station Location Temp. Windchill Dew Point Humidity Wind Precip. Elev Updated Type